sensor_id;sensor_type;location;lat;lon;timestamp;pressure;altitude;pressure_sealevel;temperature;humidity
62025;BME280;47978;49.118;12.146;2023-04-24T00:00:03;96526.63;;;10.74;96.65
62025;BME280;47978;49.118;12.146;2023-04-24T00:04:04;96523.75;;;10.62;96.82
62025;BME280;47978;49.118;12.146;2023-04-24T00:08:06;96512.81;;;10.65;97.11
62025;BME280;47978;49.118;12.146;2023-04-24T00:12:09;96508.88;;;10.75;96.60
62025;BME280;47978;49.118;12.146;2023-04-24T00:16:12;96509.53;;;10.72;96.93
62025;BME280;47978;49.118;12.146;2023-04-24T00:20:13;96503.38;;;10.66;97.34
62025;BME280;47978;49.118;12.146;2023-04-24T00:24:15;96501.78;;;10.56;98.11
62025;BME280;47978;49.118;12.146;2023-04-24T00:28:16;96490.72;;;10.65;97.90
62025;BME280;47978;49.118;12.146;2023-04-24T00:32:19;96481.13;;;10.63;97.82
62025;BME280;47978;49.118;12.146;2023-04-24T00:36:20;96490.84;;;10.69;97.43
62025;BME280;47978;49.118;12.146;2023-04-24T00:40:22;96490.03;;;10.68;97.72
62025;BME280;47978;49.118;12.146;2023-04-24T00:44:23;96485.19;;;10.65;97.87
62025;BME280;47978;49.118;12.146;2023-04-24T00:48:26;96480.75;;;10.64;97.97
62025;BME280;47978;49.118;12.146;2023-04-24T00:52:28;96486.66;;;10.63;98.14
62025;BME280;47978;49.118;12.146;2023-04-24T00:56:30;96492.84;;;10.60;97.87
62025;BME280;47978;49.118;12.146;2023-04-24T01:00:31;96489.41;;;10.63;97.64
62025;BME280;47978;49.118;12.146;2023-04-24T01:04:34;96497.53;;;10.68;97.85
62025;BME280;47978;49.118;12.146;2023-04-24T01:08:36;96495.44;;;10.65;97.74
62025;BME280;47978;49.118;12.146;2023-04-24T01:12:38;96484.50;;;10.68;97.54
62025;BME280;47978;49.118;12.146;2023-04-24T01:16:39;96478.44;;;10.75;97.25
62025;BME280;47978;49.118;12.146;2023-04-24T01:20:42;96474.53;;;10.85;97.24
62025;BME280;47978;49.118;12.146;2023-04-24T01:24:47;96483.28;;;10.87;97.02
62025;BME280;47978;49.118;12.146;2023-04-24T01:28:49;96489.16;;;10.85;97.13
62025;BME280;47978;49.118;12.146;2023-04-24T01:32:50;96477.66;;;10.74;97.25
62025;BME280;47978;49.118;12.146;2023-04-24T01:36:52;96478.44;;;10.75;97.59
62025;BME280;47978;49.118;12.146;2023-04-24T01:40:54;96477.50;;;10.71;97.44
62025;BME280;47978;49.118;12.146;2023-04-24T01:44:56;96480.41;;;10.74;97.46
62025;BME280;47978;49.118;12.146;2023-04-24T01:48:58;96482.84;;;10.76;97.31
62025;BME280;47978;49.118;12.146;2023-04-24T01:53:00;96486.22;;;10.90;97.19
62025;BME280;47978;49.118;12.146;2023-04-24T01:57:03;96480.72;;;10.82;97.50
62025;BME280;47978;49.118;12.146;2023-04-24T02:01:05;96480.72;;;10.82;97.16
62025;BME280;47978;49.118;12.146;2023-04-24T02:05:08;96482.19;;;10.79;97.74
62025;BME280;47978;49.118;12.146;2023-04-24T02:09:09;96482.56;;;10.69;98.02
62025;BME280;47978;49.118;12.146;2023-04-24T02:13:12;96469.03;;;10.76;97.96
62025;BME280;47978;49.118;12.146;2023-04-24T02:17:13;96469.22;;;10.71;98.20
62025;BME280;47978;49.118;12.146;2023-04-24T02:21:15;96470.03;;;10.71;98.09
62025;BME280;47978;49.118;12.146;2023-04-24T02:25:16;96461.25;;;10.69;98.45
62025;BME280;47978;49.118;12.146;2023-04-24T02:29:19;96464.53;;;10.63;98.03
62025;BME280;47978;49.118;12.146;2023-04-24T02:33:20;96457.53;;;10.65;97.74
62025;BME280;47978;49.118;12.146;2023-04-24T02:37:21;96454.22;;;10.72;97.57
62025;BME280;47978;49.118;12.146;2023-04-24T02:41:23;96459.66;;;10.60;97.84
62025;BME280;47978;49.118;12.146;2023-04-24T02:45:26;96444.88;;;10.55;98.07
62025;BME280;47978;49.118;12.146;2023-04-24T02:49:27;96444.91;;;10.47;98.05
62025;BME280;47978;49.118;12.146;2023-04-24T02:53:28;96441.50;;;10.41;98.20
62025;BME280;47978;49.118;12.146;2023-04-24T02:57:30;96435.34;;;10.35;98.04
62025;BME280;47978;49.118;12.146;2023-04-24T03:01:33;96437.81;;;10.37;97.78
62025;BME280;47978;49.118;12.146;2023-04-24T03:05:34;96434.25;;;10.28;97.78
62025;BME280;47978;49.118;12.146;2023-04-24T03:09:35;96435.56;;;10.30;97.77
62025;BME280;47978;49.118;12.146;2023-04-24T03:13:37;96431.31;;;10.24;97.92
62025;BME280;47978;49.118;12.146;2023-04-24T03:17:40;96430.50;;;10.24;97.57
62025;BME280;47978;49.118;12.146;2023-04-24T03:21:41;96424.06;;;10.11;97.82
62025;BME280;47978;49.118;12.146;2023-04-24T03:25:42;96429.09;;;10.00;98.65
62025;BME280;47978;49.118;12.146;2023-04-24T03:29:44;96425.81;;;10.07;97.85
62025;BME280;47978;49.118;12.146;2023-04-24T03:33:46;96427.78;;;10.06;97.90
62025;BME280;47978;49.118;12.146;2023-04-24T03:37:48;96429.09;;;10.09;97.90
62025;BME280;47978;49.118;12.146;2023-04-24T03:41:49;96439.34;;;10.00;98.40
62025;BME280;47978;49.118;12.146;2023-04-24T03:45:51;96445.69;;;10.00;98.44
62025;BME280;47978;49.118;12.146;2023-04-24T03:49:53;96446.19;;;9.94;98.37
62025;BME280;47978;49.118;12.146;2023-04-24T03:53:55;96451.06;;;9.97;98.44
62025;BME280;47978;49.118;12.146;2023-04-24T03:57:56;96453.97;;;10.00;98.25
62025;BME280;47978;49.118;12.146;2023-04-24T04:01:57;96450.56;;;9.95;98.49
62025;BME280;47978;49.118;12.146;2023-04-24T04:06:00;96456.56;;;10.05;98.21
62025;BME280;47978;49.118;12.146;2023-04-24T04:10:02;96458.66;;;10.08;97.88
62025;BME280;47978;49.118;12.146;2023-04-24T04:14:03;96454.56;;;10.14;98.00
62025;BME280;47978;49.118;12.146;2023-04-24T04:18:04;96457.50;;;10.27;97.99
62025;BME280;47978;49.118;12.146;2023-04-24T04:22:07;96458.94;;;10.42;97.83
62025;BME280;47978;49.118;12.146;2023-04-24T04:26:09;96449.66;;;10.38;97.68
62025;BME280;47978;49.118;12.146;2023-04-24T04:30:10;96455.16;;;10.46;98.00
62025;BME280;47978;49.118;12.146;2023-04-24T04:34:12;96452.25;;;10.43;97.54
62025;BME280;47978;49.118;12.146;2023-04-24T04:38:14;96459.38;;;10.44;97.83
62025;BME280;47978;49.118;12.146;2023-04-24T04:42:16;96454.50;;;10.49;97.54
62025;BME280;47978;49.118;12.146;2023-04-24T04:46:17;96460.69;;;10.46;97.50
62025;BME280;47978;49.118;12.146;2023-04-24T04:50:18;96463.59;;;10.50;97.09
62025;BME280;47978;49.118;12.146;2023-04-24T04:54:21;96460.03;;;10.49;97.01
62025;BME280;47978;49.118;12.146;2023-04-24T04:58:23;96460.19;;;10.44;97.06
62025;BME280;47978;49.118;12.146;2023-04-24T05:02:24;96463.59;;;10.50;96.74
62025;BME280;47978;49.118;12.146;2023-04-24T05:06:25;96459.03;;;10.54;97.07
62025;BME280;47978;49.118;12.146;2023-04-24T05:10:28;96462.59;;;10.54;96.52
62025;BME280;47978;49.118;12.146;2023-04-24T05:14:29;96476.75;;;10.53;97.01
62025;BME280;47978;49.118;12.146;2023-04-24T05:18:31;96475.72;;;10.66;96.55
62025;BME280;47978;49.118;12.146;2023-04-24T05:22:32;96470.34;;;10.70;95.92
62025;BME280;47978;49.118;12.146;2023-04-24T05:26:35;96477.38;;;10.67;96.09
62025;BME280;47978;49.118;12.146;2023-04-24T05:30:36;96482.66;;;10.81;95.36
62025;BME280;47978;49.118;12.146;2023-04-24T05:34:38;96482.28;;;10.91;95.14
62025;BME280;47978;49.118;12.146;2023-04-24T05:38:39;96481.31;;;10.96;94.93
62025;BME280;47978;49.118;12.146;2023-04-24T05:42:42;96486.78;;;11.05;93.89
62025;BME280;47978;49.118;12.146;2023-04-24T05:46:43;96489.72;;;11.29;93.18
62025;BME280;47978;49.118;12.146;2023-04-24T05:50:45;96496.66;;;11.35;92.31
62025;BME280;47978;49.118;12.146;2023-04-24T05:54:46;96493.22;;;11.38;92.35
62025;BME280;47978;49.118;12.146;2023-04-24T05:58:49;96495.00;;;11.43;90.86
62025;BME280;47978;49.118;12.146;2023-04-24T06:02:50;96499.53;;;11.47;90.04
62025;BME280;47978;49.118;12.146;2023-04-24T06:06:52;96496.69;;;11.56;90.33
62025;BME280;47978;49.118;12.146;2023-04-24T06:10:53;96501.44;;;11.56;90.32
62025;BME280;47978;49.118;12.146;2023-04-24T06:14:56;96503.16;;;11.60;89.49
62025;BME280;47978;49.118;12.146;2023-04-24T06:18:58;96502.31;;;11.68;89.19
62025;BME280;47978;49.118;12.146;2023-04-24T06:22:59;96505.00;;;11.77;88.97
62025;BME280;47978;49.118;12.146;2023-04-24T06:27:00;96503.47;;;11.88;88.83
62025;BME280;47978;49.118;12.146;2023-04-24T06:31:03;96517.13;;;11.93;88.34
62025;BME280;47978;49.118;12.146;2023-04-24T06:35:05;96507.53;;;11.91;88.44
62025;BME280;47978;49.118;12.146;2023-04-24T06:39:06;96513.69;;;11.97;88.22
62025;BME280;47978;49.118;12.146;2023-04-24T06:43:08;96509.91;;;12.01;87.55
62025;BME280;47978;49.118;12.146;2023-04-24T06:47:11;96497.84;;;12.18;87.29
62025;BME280;47978;49.118;12.146;2023-04-24T06:51:12;96506.19;;;12.30;85.93
62025;BME280;47978;49.118;12.146;2023-04-24T06:55:14;96506.19;;;12.30;86.22
62025;BME280;47978;49.118;12.146;2023-04-24T06:59:15;96507.97;;;12.47;85.93
62025;BME280;47978;49.118;12.146;2023-04-24T07:03:18;96509.97;;;12.71;85.75
62025;BME280;47978;49.118;12.146;2023-04-24T07:07:19;96509.53;;;13.06;82.59
62025;BME280;47978;49.118;12.146;2023-04-24T07:11:21;96516.03;;;13.47;80.47
62025;BME280;47978;49.118;12.146;2023-04-24T07:15:22;96510.38;;;13.43;81.08
62025;BME280;47978;49.118;12.146;2023-04-24T07:19:25;96506.03;;;13.70;80.09
62025;BME280;47978;49.118;12.146;2023-04-24T07:23:27;96505.25;;;13.70;78.42
62025;BME280;47978;49.118;12.146;2023-04-24T07:27:28;96507.19;;;13.82;79.23
62025;BME280;47978;49.118;12.146;2023-04-24T07:31:30;96515.56;;;13.69;79.13
62025;BME280;47978;49.118;12.146;2023-04-24T07:35:34;96506.19;;;13.62;78.75
62025;BME280;47978;49.118;12.146;2023-04-24T07:39:35;96509.88;;;13.66;79.04
62025;BME280;47978;49.118;12.146;2023-04-24T07:43:36;96521.47;;;13.56;79.19
62025;BME280;47978;49.118;12.146;2023-04-24T07:47:38;96518.69;;;13.56;78.48
62025;BME280;47978;49.118;12.146;2023-04-24T07:51:41;96517.88;;;13.67;78.53
62025;BME280;47978;49.118;12.146;2023-04-24T07:55:43;96519.50;;;13.56;79.30
62025;BME280;47978;49.118;12.146;2023-04-24T07:59:44;96516.69;;;13.68;79.08
62025;BME280;47978;49.118;12.146;2023-04-24T08:03:46;96523.09;;;13.97;77.19
62025;BME280;47978;49.118;12.146;2023-04-24T08:07:49;96518.28;;;14.22;76.41
62025;BME280;47978;49.118;12.146;2023-04-24T08:11:50;96515.00;;;14.60;75.30
62025;BME280;47978;49.118;12.146;2023-04-24T08:15:51;96523.09;;;14.81;73.28
62025;BME280;47978;49.118;12.146;2023-04-24T08:19:53;96517.66;;;14.57;73.40
62025;BME280;47978;49.118;12.146;2023-04-24T08:23:56;96524.34;;;14.84;74.32
62025;BME280;47978;49.118;12.146;2023-04-24T08:27:57;96520.41;;;15.01;71.61
62025;BME280;47978;49.118;12.146;2023-04-24T08:31:58;96514.03;;;14.69;72.25
62025;BME280;47978;49.118;12.146;2023-04-24T08:36:00;96524.16;;;14.61;71.30
62025;BME280;47978;49.118;12.146;2023-04-24T08:40:05;96532.22;;;14.10;71.11
62025;BME280;47978;49.118;12.146;2023-04-24T08:44:07;96562.84;;;13.12;68.27
62025;BME280;47978;49.118;12.146;2023-04-24T08:48:10;96563.03;;;12.70;70.08
62025;BME280;47978;49.118;12.146;2023-04-24T08:52:30;96576.34;;;12.43;71.29
62025;BME280;47978;49.118;12.146;2023-04-24T08:56:33;96572.88;;;12.46;69.69
62025;BME280;47978;49.118;12.146;2023-04-24T09:00:34;96570.97;;;12.59;69.29
62025;BME280;47978;49.118;12.146;2023-04-24T09:04:37;96579.78;;;12.73;68.91
62025;BME280;47978;49.118;12.146;2023-04-24T09:08:38;96581.00;;;12.97;68.58
62025;BME280;47978;49.118;12.146;2023-04-24T09:12:43;96565.56;;;13.33;68.47
62025;BME280;47978;49.118;12.146;2023-04-24T09:16:45;96565.81;;;13.52;67.93
62025;BME280;47978;49.118;12.146;2023-04-24T09:21:00;96565.31;;;13.62;67.25
62025;BME280;47978;49.118;12.146;2023-04-24T09:25:02;96568.25;;;13.41;63.99
62025;BME280;47978;49.118;12.146;2023-04-24T09:29:05;96565.81;;;13.52;64.26
62025;BME280;47978;49.118;12.146;2023-04-24T09:33:09;96558.47;;;13.84;62.87
62025;BME280;47978;49.118;12.146;2023-04-24T09:37:11;96563.00;;;14.45;60.90
62025;BME280;47978;49.118;12.146;2023-04-24T09:41:13;96561.63;;;14.95;58.16
62025;BME280;47978;49.118;12.146;2023-04-24T09:45:16;96567.69;;;15.29;56.15
62025;BME280;47978;49.118;12.146;2023-04-24T09:49:21;96575.00;;;14.90;56.53
62025;BME280;47978;49.118;12.146;2023-04-24T09:53:23;96585.28;;;14.57;56.97
62025;BME280;47978;49.118;12.146;2023-04-24T09:57:25;96602.25;;;14.68;57.33
62025;BME280;47978;49.118;12.146;2023-04-24T10:01:32;96604.22;;;14.68;56.14
62025;BME280;47978;49.118;12.146;2023-04-24T10:05:34;96591.97;;;14.84;55.58
62025;BME280;47978;49.118;12.146;2023-04-24T10:09:36;96593.88;;;14.96;55.39
62025;BME280;47978;49.118;12.146;2023-04-24T10:13:37;96603.22;;;14.48;55.92
62025;BME280;47978;49.118;12.146;2023-04-24T10:17:41;96595.13;;;14.14;58.58
62025;BME280;47978;49.118;12.146;2023-04-24T10:21:44;96610.09;;;13.85;60.16
62025;BME280;47978;49.118;12.146;2023-04-24T10:25:46;96620.88;;;13.50;60.24
62025;BME280;47978;49.118;12.146;2023-04-24T10:29:50;96622.13;;;13.28;60.70
62025;BME280;47978;49.118;12.146;2023-04-24T10:33:55;96620.03;;;13.25;60.62
62025;BME280;47978;49.118;12.146;2023-04-24T10:37:58;96623.88;;;13.45;59.78
62025;BME280;47978;49.118;12.146;2023-04-24T10:42:00;96621.69;;;13.63;60.34
62025;BME280;47978;49.118;12.146;2023-04-24T10:46:02;96620.31;;;13.69;59.78
62025;BME280;47978;49.118;12.146;2023-04-24T10:50:07;96621.22;;;13.73;59.89
62025;BME280;47978;49.118;12.146;2023-04-24T10:54:21;96626.88;;;14.01;59.21
62025;BME280;47978;49.118;12.146;2023-04-24T10:58:23;96634.25;;;14.22;56.48
62025;BME280;47978;49.118;12.146;2023-04-24T11:02:35;96625.72;;;14.43;57.34
62025;BME280;47978;49.118;12.146;2023-04-24T11:06:39;96619.88;;;14.72;56.02
62025;BME280;47978;49.118;12.146;2023-04-24T11:10:44;96617.63;;;14.78;55.12
62025;BME280;47978;49.118;12.146;2023-04-24T11:15:01;96613.47;;;15.00;54.79
62025;BME280;47978;49.118;12.146;2023-04-24T11:19:04;96613.53;;;14.88;55.05
62025;BME280;47978;49.118;12.146;2023-04-24T11:23:07;96605.66;;;15.05;53.27
62025;BME280;47978;49.118;12.146;2023-04-24T11:27:11;96609.00;;;15.27;53.56
62025;BME280;47978;49.118;12.146;2023-04-24T11:31:33;96613.81;;;14.98;54.50
62025;BME280;47978;49.118;12.146;2023-04-24T11:35:35;96629.31;;;14.55;54.59
62025;BME280;47978;49.118;12.146;2023-04-24T11:39:41;96643.56;;;13.77;57.28
62025;BME280;47978;49.118;12.146;2023-04-24T11:43:43;96639.66;;;13.20;62.39
62025;BME280;47978;49.118;12.146;2023-04-24T11:47:45;96636.88;;;13.08;63.00
62025;BME280;47978;49.118;12.146;2023-04-24T11:51:47;96648.84;;;12.87;61.82
62025;BME280;47978;49.118;12.146;2023-04-24T11:55:55;96646.59;;;13.14;62.59
62025;BME280;47978;49.118;12.146;2023-04-24T11:59:56;96639.16;;;13.39;60.91
62025;BME280;47978;49.118;12.146;2023-04-24T12:03:59;96631.66;;;13.64;60.71
62025;BME280;47978;49.118;12.146;2023-04-24T12:08:01;96632.31;;;13.85;59.34
62025;BME280;47978;49.118;12.146;2023-04-24T12:12:04;96637.06;;;14.09;59.07
62025;BME280;47978;49.118;12.146;2023-04-24T12:16:07;96631.69;;;14.29;58.66
62025;BME280;47978;49.118;12.146;2023-04-24T12:20:09;96640.06;;;14.69;57.71
62025;BME280;47978;49.118;12.146;2023-04-24T12:24:11;96627.44;;;14.88;56.11
62025;BME280;47978;49.118;12.146;2023-04-24T12:28:13;96639.72;;;15.15;55.62
62025;BME280;47978;49.118;12.146;2023-04-24T12:32:15;96623.28;;;15.25;54.78
62025;BME280;47978;49.118;12.146;2023-04-24T12:36:17;96619.69;;;15.25;53.11
62025;BME280;47978;49.118;12.146;2023-04-24T12:40:19;96613.56;;;15.19;52.54
62025;BME280;47978;49.118;12.146;2023-04-24T12:44:29;96612.78;;;15.35;51.13
62025;BME280;47978;49.118;12.146;2023-04-24T12:48:31;96614.31;;;15.80;49.67
62025;BME280;47978;49.118;12.146;2023-04-24T12:52:32;96638.03;;;15.58;49.43
62025;BME280;47978;49.118;12.146;2023-04-24T12:56:34;96629.75;;;14.85;49.02
62025;BME280;47978;49.118;12.146;2023-04-24T13:00:36;96631.56;;;14.94;48.21
62025;BME280;47978;49.118;12.146;2023-04-24T13:04:39;96629.63;;;14.94;47.73
62025;BME280;47978;49.118;12.146;2023-04-24T13:08:40;96660.53;;;14.77;47.79
62025;BME280;47978;49.118;12.146;2023-04-24T13:12:42;96646.03;;;14.43;48.08
62025;BME280;47978;49.118;12.146;2023-04-24T13:16:44;96660.66;;;14.28;49.21
62025;BME280;47978;49.118;12.146;2023-04-24T13:20:46;96667.38;;;14.27;49.35
62025;BME280;47978;49.118;12.146;2023-04-24T13:24:47;96668.75;;;14.33;50.25
62025;BME280;47978;49.118;12.146;2023-04-24T13:28:49;96677.22;;;14.24;50.89
62025;BME280;47978;49.118;12.146;2023-04-24T13:32:52;96669.72;;;14.12;48.96
62025;BME280;47978;49.118;12.146;2023-04-24T13:36:54;96679.88;;;14.33;48.66
62025;BME280;47978;49.118;12.146;2023-04-24T13:40:56;96670.34;;;14.58;48.80
62025;BME280;47978;49.118;12.146;2023-04-24T13:44:57;96670.47;;;14.90;49.06
62025;BME280;47978;49.118;12.146;2023-04-24T13:49:01;96658.09;;;15.03;46.67
62025;BME280;47978;49.118;12.146;2023-04-24T13:53:02;96670.75;;;15.01;48.31
62025;BME280;47978;49.118;12.146;2023-04-24T13:57:04;96662.72;;;15.12;47.73
62025;BME280;47978;49.118;12.146;2023-04-24T14:01:05;96660.22;;;15.38;48.55
62025;BME280;47978;49.118;12.146;2023-04-24T14:05:08;96662.50;;;15.48;46.75
62025;BME280;47978;49.118;12.146;2023-04-24T14:09:18;96676.34;;;15.17;46.42
62025;BME280;47978;49.118;12.146;2023-04-24T14:13:20;96669.09;;;14.84;46.73
62025;BME280;47978;49.118;12.146;2023-04-24T14:17:21;96670.41;;;14.74;47.96
62025;BME280;47978;49.118;12.146;2023-04-24T14:21:23;96681.47;;;14.58;48.61
62025;BME280;47978;49.118;12.146;2023-04-24T14:25:26;96676.81;;;14.50;48.79
62025;BME280;47978;49.118;12.146;2023-04-24T14:29:27;96673.38;;;14.53;48.52
62025;BME280;47978;49.118;12.146;2023-04-24T14:33:28;96674.91;;;14.26;48.91
62025;BME280;47978;49.118;12.146;2023-04-24T14:37:30;96685.09;;;14.34;50.11
62025;BME280;47978;49.118;12.146;2023-04-24T14:41:33;96677.69;;;14.14;50.28
62025;BME280;47978;49.118;12.146;2023-04-24T14:45:34;96685.94;;;13.98;50.48
62025;BME280;47978;49.118;12.146;2023-04-24T14:49:36;96688.63;;;13.70;50.60
62025;BME280;47978;49.118;12.146;2023-04-24T14:53:37;96694.03;;;13.54;51.45
62025;BME280;47978;49.118;12.146;2023-04-24T14:57:40;96692.75;;;13.52;51.57
62025;BME280;47978;49.118;12.146;2023-04-24T15:01:41;96699.34;;;13.47;51.04
62025;BME280;47978;49.118;12.146;2023-04-24T15:05:43;96696.53;;;13.35;51.08
62025;BME280;47978;49.118;12.146;2023-04-24T15:09:44;96700.28;;;13.51;50.70
62025;BME280;47978;49.118;12.146;2023-04-24T15:13:47;96712.09;;;13.60;50.63
62025;BME280;47978;49.118;12.146;2023-04-24T15:17:49;96714.28;;;13.55;51.20
62025;BME280;47978;49.118;12.146;2023-04-24T15:21:51;96721.59;;;13.59;51.08
62025;BME280;47978;49.118;12.146;2023-04-24T15:25:52;96716.72;;;13.56;52.02
62025;BME280;47978;49.118;12.146;2023-04-24T15:29:55;96722.28;;;13.23;52.16
62025;BME280;47978;49.118;12.146;2023-04-24T15:33:56;96723.72;;;13.08;52.21
62025;BME280;47978;49.118;12.146;2023-04-24T15:37:58;96722.81;;;13.04;52.20
62025;BME280;47978;49.118;12.146;2023-04-24T15:41:59;96728.72;;;13.15;52.07
62025;BME280;47978;49.118;12.146;2023-04-24T15:46:02;96727.22;;;13.38;52.65
62025;BME280;47978;49.118;12.146;2023-04-24T15:50:04;96722.78;;;13.95;51.40
62025;BME280;47978;49.118;12.146;2023-04-24T15:54:06;96731.22;;;14.35;51.85
62025;BME280;47978;49.118;12.146;2023-04-24T15:58:07;96732.38;;;14.34;49.69
62025;BME280;47978;49.118;12.146;2023-04-24T16:02:10;96723.22;;;13.97;48.88
62025;BME280;47978;49.118;12.146;2023-04-24T16:06:12;96730.88;;;13.88;48.88
62025;BME280;47978;49.118;12.146;2023-04-24T16:10:14;96735.38;;;13.80;50.00
62025;BME280;47978;49.118;12.146;2023-04-24T16:14:15;96740.94;;;13.68;49.82
62025;BME280;47978;49.118;12.146;2023-04-24T16:18:18;96750.16;;;13.60;51.25
62025;BME280;47978;49.118;12.146;2023-04-24T16:22:19;96748.63;;;13.38;50.64
62025;BME280;47978;49.118;12.146;2023-04-24T16:26:21;96749.66;;;13.12;51.93
62025;BME280;47978;49.118;12.146;2023-04-24T16:30:22;96756.03;;;13.13;52.14
62025;BME280;47978;49.118;12.146;2023-04-24T16:34:25;96758.75;;;12.79;53.27
62025;BME280;47978;49.118;12.146;2023-04-24T16:38:26;96798.16;;;12.43;56.02
62025;BME280;47978;49.118;12.146;2023-04-24T16:42:28;96794.00;;;11.99;61.06
62025;BME280;47978;49.118;12.146;2023-04-24T16:46:29;96774.03;;;11.58;64.88
62025;BME280;47978;49.118;12.146;2023-04-24T16:50:32;96781.81;;;11.82;64.82
62025;BME280;47978;49.118;12.146;2023-04-24T16:54:33;96780.06;;;12.16;64.17
62025;BME280;47978;49.118;12.146;2023-04-24T16:58:35;96780.66;;;12.51;59.88
62025;BME280;47978;49.118;12.146;2023-04-24T17:02:36;96786.16;;;12.81;58.30
62025;BME280;47978;49.118;12.146;2023-04-24T17:06:39;96784.00;;;12.87;56.39
62025;BME280;47978;49.118;12.146;2023-04-24T17:10:40;96785.94;;;12.86;55.87
62025;BME280;47978;49.118;12.146;2023-04-24T17:14:42;96777.69;;;12.77;55.84
62025;BME280;47978;49.118;12.146;2023-04-24T17:18:43;96775.84;;;12.40;56.84
62025;BME280;47978;49.118;12.146;2023-04-24T17:22:46;96765.59;;;12.31;56.95
62025;BME280;47978;49.118;12.146;2023-04-24T17:26:47;96774.78;;;12.23;58.14
62025;BME280;47978;49.118;12.146;2023-04-24T17:30:49;96772.50;;;11.96;58.10
62025;BME280;47978;49.118;12.146;2023-04-24T17:34:50;96767.44;;;11.89;58.17
62025;BME280;47978;49.118;12.146;2023-04-24T17:38:53;96783.31;;;11.71;59.12
62025;BME280;47978;49.118;12.146;2023-04-24T17:42:54;96780.25;;;11.55;59.68
62025;BME280;47978;49.118;12.146;2023-04-24T17:46:56;96773.94;;;11.37;59.15
62025;BME280;47978;49.118;12.146;2023-04-24T17:50:57;96784.09;;;11.16;58.56
62025;BME280;47978;49.118;12.146;2023-04-24T17:55:00;96792.56;;;11.02;58.86
62025;BME280;47978;49.118;12.146;2023-04-24T17:59:01;96792.72;;;10.88;59.88
62025;BME280;47978;49.118;12.146;2023-04-24T18:03:04;96801.53;;;10.82;60.22
62025;BME280;47978;49.118;12.146;2023-04-24T18:07:06;96795.13;;;10.64;61.59
62025;BME280;47978;49.118;12.146;2023-04-24T18:11:09;96805.38;;;10.54;62.26
62025;BME280;47978;49.118;12.146;2023-04-24T18:15:10;96807.19;;;10.50;62.69
62025;BME280;47978;49.118;12.146;2023-04-24T18:19:15;96810.22;;;10.40;63.41
62025;BME280;47978;49.118;12.146;2023-04-24T18:23:16;96806.94;;;10.29;63.40
62025;BME280;47978;49.118;12.146;2023-04-24T18:27:19;96815.84;;;10.26;63.87
62025;BME280;47978;49.118;12.146;2023-04-24T18:31:20;96819.72;;;10.17;64.89
62025;BME280;47978;49.118;12.146;2023-04-24T18:35:22;96824.72;;;10.06;65.11
62025;BME280;47978;49.118;12.146;2023-04-24T18:39:23;96837.34;;;9.98;65.76
62025;BME280;47978;49.118;12.146;2023-04-24T18:43:26;96832.56;;;9.81;66.00
62025;BME280;47978;49.118;12.146;2023-04-24T18:47:27;96839.06;;;9.77;66.28
62025;BME280;47978;49.118;12.146;2023-04-24T18:51:29;96860.63;;;9.75;66.36
62025;BME280;47978;49.118;12.146;2023-04-24T18:55:32;96851.16;;;9.67;67.10
62025;BME280;47978;49.118;12.146;2023-04-24T18:59:35;96864.22;;;9.53;68.90
62025;BME280;47978;49.118;12.146;2023-04-24T19:03:36;96865.81;;;9.45;71.19
62025;BME280;47978;49.118;12.146;2023-04-24T19:07:38;96872.84;;;9.29;71.91
62025;BME280;47978;49.118;12.146;2023-04-24T19:11:39;96877.09;;;9.12;72.85
62025;BME280;47978;49.118;12.146;2023-04-24T19:15:42;96870.69;;;9.03;72.87
62025;BME280;47978;49.118;12.146;2023-04-24T19:19:44;96878.44;;;9.01;73.33
62025;BME280;47978;49.118;12.146;2023-04-24T19:23:45;96875.53;;;8.84;73.84
62025;BME280;47978;49.118;12.146;2023-04-24T19:27:46;96879.75;;;8.67;73.95
62025;BME280;47978;49.118;12.146;2023-04-24T19:31:49;96881.50;;;8.63;73.93
62025;BME280;47978;49.118;12.146;2023-04-24T19:35:51;96893.06;;;8.65;74.86
62025;BME280;47978;49.118;12.146;2023-04-24T19:39:52;96893.16;;;8.60;74.75
62025;BME280;47978;49.118;12.146;2023-04-24T19:43:53;96903.66;;;8.44;75.78
62025;BME280;47978;49.118;12.146;2023-04-24T19:47:56;96895.19;;;8.41;76.10
62025;BME280;47978;49.118;12.146;2023-04-24T19:51:58;96901.44;;;8.46;75.90
62025;BME280;47978;49.118;12.146;2023-04-24T19:55:59;96896.19;;;8.31;76.56
62025;BME280;47978;49.118;12.146;2023-04-24T20:00:01;96902.41;;;8.37;77.42
62025;BME280;47978;49.118;12.146;2023-04-24T20:04:04;96901.28;;;8.38;77.20
62025;BME280;47978;49.118;12.146;2023-04-24T20:08:05;96894.03;;;8.28;77.39
62025;BME280;47978;49.118;12.146;2023-04-24T20:12:07;96896.00;;;8.41;77.47
62025;BME280;47978;49.118;12.146;2023-04-24T20:16:08;96897.03;;;8.31;77.69
62025;BME280;47978;49.118;12.146;2023-04-24T20:20:13;96895.50;;;8.25;78.17
62025;BME280;47978;49.118;12.146;2023-04-24T20:24:14;96895.34;;;8.17;78.84
62025;BME280;47978;49.118;12.146;2023-04-24T20:28:16;96900.28;;;8.06;79.09
62025;BME280;47978;49.118;12.146;2023-04-24T20:32:17;96898.00;;;8.08;78.84
62025;BME280;47978;49.118;12.146;2023-04-24T20:36:20;96900.34;;;8.01;78.78
62025;BME280;47978;49.118;12.146;2023-04-24T20:40:21;96898.59;;;7.91;79.13
62025;BME280;47978;49.118;12.146;2023-04-24T20:44:23;96904.38;;;7.76;79.57
62025;BME280;47978;49.118;12.146;2023-04-24T20:48:24;96899.25;;;7.55;79.63
62025;BME280;47978;49.118;12.146;2023-04-24T20:52:27;96903.56;;;7.42;79.97
62025;BME280;47978;49.118;12.146;2023-04-24T20:56:28;96904.44;;;7.24;80.68
62025;BME280;47978;49.118;12.146;2023-04-24T21:00:30;96906.44;;;7.18;80.99
62025;BME280;47978;49.118;12.146;2023-04-24T21:04:31;96902.19;;;6.88;81.72